Time;durP1;ratioP1;P1;durP2;ratioP2;P2;SDS_P1;SDS_P2;PMS_P1;PMS_P2;Temp;Humidity;BMP_temperature;BMP_pressure;BME280_temperature;BME280_humidity;BME280_pressure;Samples;Min_cycle;Max_cycle;Signal;HPM_P1;HPM_P2
2023/06/16 00:00:11;;;;;;;18.38;10.98;;;;;;;17.63;58.80;99116.47;5055927;28;20044;-70
2023/06/16 00:02:41;;;;;;;19.98;9.60;;;;;;;17.65;58.61;99111.78;5057625;28;20058;-67
2023/06/16 00:05:09;;;;;;;24.33;10.68;;;;;;;17.64;59.32;99113.63;5057712;28;20040;-66
2023/06/16 00:07:35;;;;;;;20.27;9.48;;;;;;;17.65;59.27;99107.22;5044113;28;20047;-67
2023/06/16 00:10:00;;;;;;;16.38;9.57;;;;;;;17.64;59.18;99102.00;5050718;28;20541;-69
2023/06/16 00:12:25;;;;;;;19.98;10.55;;;;;;;17.66;58.89;99105.38;5041374;28;20040;-73
2023/06/16 00:14:51;;;;;;;21.45;10.50;;;;;;;17.66;59.36;99095.44;5037724;28;20710;-72
2023/06/16 00:17:16;;;;;;;18.88;10.88;;;;;;;17.68;59.38;99106.91;5037735;28;20032;-71
2023/06/16 00:19:41;;;;;;;23.83;11.10;;;;;;;17.69;59.57;99110.44;5038719;28;20052;-68
2023/06/16 00:22:07;;;;;;;19.42;11.23;;;;;;;17.72;59.53;99100.13;5043678;28;20590;-69
2023/06/16 00:24:32;;;;;;;21.10;12.00;;;;;;;17.75;59.44;99109.75;5035506;28;20414;-68
2023/06/16 00:26:57;;;;;;;20.85;9.85;;;;;;;17.77;59.85;99103.19;5036502;28;20082;-73
2023/06/16 00:29:23;;;;;;;21.77;9.82;;;;;;;17.80;59.82;99104.72;5006584;28;20434;-66
2023/06/16 00:31:48;;;;;;;17.35;10.65;;;;;;;17.81;59.71;99106.41;5036966;28;20085;-69
2023/06/16 00:34:13;;;;;;;30.52;11.75;;;;;;;17.82;59.08;99096.47;5042333;28;20052;-70
2023/06/16 00:36:39;;;;;;;18.02;9.98;;;;;;;17.82;59.30;99099.16;5018534;28;20044;-70
2023/06/16 00:39:04;;;;;;;17.67;10.90;;;;;;;17.83;59.37;99101.69;5032361;28;20046;-68
2023/06/16 00:41:30;;;;;;;18.50;10.57;;;;;;;17.82;59.34;99105.41;5038602;28;20036;-69
2023/06/16 00:43:56;;;;;;;17.67;9.82;;;;;;;17.82;60.11;99102.69;5042930;28;20048;-69
2023/06/16 00:46:29;;;;;;;20.75;9.52;;;;;;;17.87;60.05;99105.72;5039459;28;20382;-71
2023/06/16 00:48:56;;;;;;;17.58;10.05;;;;;;;17.83;59.58;99099.00;5035525;28;20106;-69
2023/06/16 00:51:21;;;;;;;17.77;11.18;;;;;;;17.84;59.95;99103.34;5042867;28;20044;-72
2023/06/16 00:53:47;;;;;;;20.30;11.07;;;;;;;17.84;60.04;99108.75;5054220;28;20039;-70
2023/06/16 00:56:13;;;;;;;19.63;11.10;;;;;;;17.87;60.40;99102.16;5060250;28;20043;-68
2023/06/16 00:58:38;;;;;;;22.45;11.07;;;;;;;17.89;60.30;99108.25;5061193;28;20130;-67
2023/06/16 01:01:04;;;;;;;16.23;10.75;;;;;;;17.90;60.27;99109.94;5065526;28;20044;-75
2023/06/16 01:03:32;;;;;;;16.45;10.35;;;;;;;17.90;59.99;99108.06;5022092;28;20706;-71
2023/06/16 01:06:03;;;;;;;15.95;10.23;;;;;;;17.91;60.51;99117.84;5057304;28;20044;-73
2023/06/16 01:08:38;;;;;;;19.27;10.40;;;;;;;17.95;60.63;99118.34;5034602;28;20419;-70
2023/06/16 01:11:31;;;;;;;18.77;11.57;;;;;;;17.96;60.23;99111.94;5055111;28;20052;-72
2023/06/16 01:14:03;;;;;;;22.27;10.98;;;;;;;17.99;60.62;99111.59;5057871;28;20035;-74
2023/06/16 01:16:31;;;;;;;20.67;12.20;;;;;;;17.98;60.01;99115.31;5056516;28;20050;-74
2023/06/16 01:18:58;;;;;;;19.85;10.82;;;;;;;18.01;60.15;99114.97;5050012;28;20062;-76
2023/06/16 01:21:39;;;;;;;20.63;11.35;;;;;;;18.04;60.28;99112.81;5038543;28;20063;-75
2023/06/16 01:24:13;;;;;;;18.58;11.25;;;;;;;18.11;60.76;99112.94;5057027;28;20044;-71
2023/06/16 01:26:44;;;;;;;19.45;10.95;;;;;;;18.16;60.94;99107.91;5038660;28;20047;-73
2023/06/16 01:29:12;;;;;;;21.40;11.18;;;;;;;18.19;60.25;99104.00;5056059;28;20066;-75
2023/06/16 01:31:40;;;;;;;17.35;10.63;;;;;;;18.24;60.13;99109.72;5055991;28;20043;-72
2023/06/16 01:34:07;;;;;;;20.58;10.90;;;;;;;18.29;60.36;99107.34;5036331;28;20051;-76
2023/06/16 01:36:36;;;;;;;25.58;11.52;;;;;;;18.33;60.12;99106.00;5056597;28;20040;-79
2023/06/16 01:39:02;;;;;;;18.48;10.40;;;;;;;18.38;59.71;99114.44;5026753;28;20037;-73
2023/06/16 01:41:30;;;;;;;20.20;11.13;;;;;;;18.41;60.04;99105.97;5050831;28;20044;-70
2023/06/16 01:43:57;;;;;;;23.23;11.27;;;;;;;18.44;59.73;99103.78;5040494;28;20051;-67
2023/06/16 01:46:24;;;;;;;25.17;12.25;;;;;;;18.51;59.83;99101.22;5024755;28;20044;-67
2023/06/16 01:48:51;;;;;;;24.38;11.02;;;;;;;18.57;59.73;99099.69;5033631;28;20056;-70
2023/06/16 01:51:16;;;;;;;20.73;11.10;;;;;;;18.62;59.55;99102.75;5035142;28;20045;-71
2023/06/16 01:53:42;;;;;;;17.30;11.32;;;;;;;18.68;59.75;99102.03;5035522;28;20055;-70
2023/06/16 01:56:10;;;;;;;17.17;10.77;;;;;;;18.74;59.62;99102.19;5035503;28;20052;-69
2023/06/16 01:58:36;;;;;;;23.50;11.73;;;;;;;18.79;59.46;99104.38;5034205;28;20040;-69
2023/06/16 02:01:29;;;;;;;24.92;11.90;;;;;;;18.92;57.97;99104.66;5034271;28;20048;-69
2023/06/16 02:04:15;;;;;;;20.77;11.70;;;;;;;19.05;58.10;99104.94;5051635;28;20051;-71
2023/06/16 02:07:07;;;;;;;26.58;11.25;;;;;;;19.12;58.60;99100.50;5027014;28;20056;-70
2023/06/16 02:09:35;;;;;;;22.25;10.90;;;;;;;19.18;57.80;99109.78;5029085;28;20049;-70
2023/06/16 02:12:01;;;;;;;26.55;11.32;;;;;;;19.27;57.16;99107.84;5038357;28;20048;-70
2023/06/16 02:14:33;;;;;;;33.88;12.48;;;;;;;19.35;57.03;99103.22;5055565;28;20773;-70
2023/06/16 02:16:59;;;;;;;28.23;11.27;;;;;;;19.43;56.52;99094.22;5017681;28;20048;-71
2023/06/16 02:19:28;;;;;;;23.60;11.45;;;;;;;19.51;56.28;99100.47;5054165;28;20044;-77
2023/06/16 02:21:57;;;;;;;31.13;13.27;;;;;;;19.58;56.40;99097.88;5047514;28;20485;-76
2023/06/16 02:24:25;;;;;;;25.92;11.32;;;;;;;19.64;55.75;99101.72;5026607;28;20044;-73
2023/06/16 02:26:50;;;;;;;29.73;10.85;;;;;;;19.70;56.46;99092.88;5027383;28;20044;-74
2023/06/16 02:29:16;;;;;;;23.25;12.15;;;;;;;19.75;56.43;99087.78;5044920;28;20379;-75
2023/06/16 02:31:47;;;;;;;24.13;11.02;;;;;;;19.82;55.65;99094.13;5034278;28;20411;-72
2023/06/16 02:34:12;;;;;;;23.83;11.75;;;;;;;19.85;56.04;99091.91;5017964;28;20067;-73
2023/06/16 02:36:38;;;;;;;22.50;11.35;;;;;;;19.92;56.37;99092.03;5028521;28;20059;-73
2023/06/16 02:39:03;;;;;;;23.55;11.52;;;;;;;19.97;56.24;99091.47;5035082;28;20044;-73
2023/06/16 02:41:28;;;;;;;30.20;11.73;;;;;;;20.01;56.61;99087.38;5054922;28;20044;-73
2023/06/16 02:43:54;;;;;;;27.23;11.73;;;;;;;20.07;56.43;99089.34;5050317;28;20585;-74
2023/06/16 02:46:20;;;;;;;24.75;13.07;;;;;;;20.15;56.50;99086.56;5036427;28;20048;-70
2023/06/16 02:48:45;;;;;;;23.27;10.52;;;;;;;20.24;56.61;99090.88;5050468;28;20549;-77
2023/06/16 02:51:11;;;;;;;20.70;11.10;;;;;;;20.36;56.32;99084.00;5036041;28;20517;-75
2023/06/16 02:53:39;;;;;;;30.25;12.93;;;;;;;20.46;55.24;99079.16;5054043;28;20043;-76
2023/06/16 02:56:04;;;;;;;24.35;12.00;;;;;;;20.58;54.21;99076.81;5035520;28;20056;-72
2023/06/16 02:58:31;;;;;;;23.02;11.27;;;;;;;20.69;54.08;99081.75;5033411;28;20380;-85
2023/06/16 03:00:56;;;;;;;24.85;12.90;;;;;;;20.80;53.55;99072.31;5028661;28;20056;-77
2023/06/16 03:03:37;;;;;;;23.98;11.32;;;;;;;20.97;52.35;99076.50;5032747;28;20048;-77
2023/06/16 03:06:23;;;;;;;20.55;10.93;;;;;;;21.09;52.79;99079.56;5000615;28;20053;-76
2023/06/16 03:08:49;;;;;;;23.88;12.10;;;;;;;21.22;52.71;99080.56;4962795;28;20050;-77
2023/06/16 03:11:15;;;;;;;33.47;19.13;;;;;;;21.32;52.37;99083.84;4977283;28;20495;-79
2023/06/16 03:13:49;;;;;;;27.67;12.77;;;;;;;21.46;51.13;99087.50;4974890;28;20559;-78
2023/06/16 03:16:20;;;;;;;34.13;14.10;;;;;;;21.54;51.18;99083.84;4985321;28;20052;-77
2023/06/16 03:18:47;;;;;;;34.88;11.30;;;;;;;21.61;50.21;99076.59;5006975;28;20053;-77
2023/06/16 03:21:12;;;;;;;22.55;11.52;;;;;;;21.73;50.15;99083.19;4979568;28;20060;-78
2023/06/16 03:23:44;;;;;;;31.13;12.07;;;;;;;21.86;50.10;99088.75;4995051;28;20100;-78
2023/06/16 03:26:10;;;;;;;24.23;11.55;;;;;;;21.96;49.63;99083.81;4999194;28;20048;-78
2023/06/16 03:29:05;;;;;;;22.27;11.55;;;;;;;22.12;48.77;99090.03;4977876;28;20056;-79
2023/06/16 03:31:31;;;;;;;22.98;11.50;;;;;;;22.24;48.33;99085.72;5001683;28;20077;-79
2023/06/16 03:33:59;;;;;;;22.40;10.20;;;;;;;22.36;48.34;99078.72;5002840;28;20057;-77
2023/06/16 03:36:26;;;;;;;23.00;10.52;;;;;;;22.49;47.83;99083.41;5014435;28;20431;-77
2023/06/16 03:38:51;;;;;;;27.90;14.40;;;;;;;22.60;47.86;99080.97;4998822;28;20056;-77
2023/06/16 03:41:17;;;;;;;22.60;11.35;;;;;;;22.79;48.09;99077.56;4997418;28;20052;-75
2023/06/16 03:43:42;;;;;;;27.85;12.18;;;;;;;22.98;47.73;99072.41;5008776;28;20411;-75
2023/06/16 03:46:07;;;;;;;24.88;12.65;;;;;;;23.21;46.96;99064.75;5020193;28;20048;-77
2023/06/16 03:48:34;;;;;;;25.08;16.02;;;;;;;23.43;46.80;99070.88;5033986;28;20052;-78
2023/06/16 03:51:01;;;;;;;37.20;19.23;;;;;;;23.64;46.22;99068.00;5051372;28;20071;-78
2023/06/16 03:53:28;;;;;;;20.33;11.55;;;;;;;23.83;45.29;99071.78;5056143;28;20044;-77
2023/06/16 03:55:55;;;;;;;24.98;11.43;;;;;;;23.96;45.37;99066.34;5018528;28;20057;-77
2023/06/16 03:58:22;;;;;;;18.20;10.15;;;;;;;24.15;45.26;99076.38;5055942;28;20044;-78
2023/06/16 04:00:47;;;;;;;27.25;10.23;;;;;;;24.34;44.68;99071.19;5055371;28;20044;-77
2023/06/16 04:03:15;;;;;;;19.30;10.35;;;;;;;24.51;44.13;99075.13;5031530;28;20056;-78
2023/06/16 04:05:41;;;;;;;25.80;11.50;;;;;;;24.55;43.79;99068.19;5051504;28;20040;-77
2023/06/16 04:08:06;;;;;;;23.00;11.13;;;;;;;24.58;43.83;99065.06;5033585;28;20053;-77
2023/06/16 04:10:33;;;;;;;20.55;11.05;;;;;;;24.73;43.44;99068.34;5017448;28;20051;-76
2023/06/16 04:12:59;;;;;;;15.27;10.07;;;;;;;24.95;42.57;99071.66;5019331;28;20110;-75
2023/06/16 04:15:26;;;;;;;16.50;10.18;;;;;;;25.17;42.61;99070.31;5034547;28;20048;-81
2023/06/16 04:17:52;;;;;;;17.42;9.63;;;;;;;25.37;41.58;99061.19;5001637;28;20041;-77
2023/06/16 04:20:18;;;;;;;15.48;10.27;;;;;;;25.51;41.68;99066.34;5029859;28;20511;-77
2023/06/16 04:22:44;;;;;;;24.42;10.77;;;;;;;25.63;41.08;99061.88;5004617;28;20052;-78
2023/06/16 04:25:11;;;;;;;21.23;10.82;;;;;;;25.78;41.13;99071.66;5020358;28;20056;-77
2023/06/16 04:27:38;;;;;;;20.13;10.85;;;;;;;25.89;40.61;99060.00;5038963;28;20048;-76
2023/06/16 04:30:06;;;;;;;23.50;12.77;;;;;;;25.92;39.89;99056.84;5040008;28;20491;-78
2023/06/16 04:32:35;;;;;;;19.65;11.82;;;;;;;26.03;40.09;99058.84;5036779;28;20526;-77
2023/06/16 04:35:04;;;;;;;20.65;12.52;;;;;;;26.19;39.58;99069.19;5020667;28;20110;-78
2023/06/16 04:37:32;;;;;;;22.48;11.00;;;;;;;26.24;38.86;99063.91;5012370;28;20506;-76
2023/06/16 04:39:59;;;;;;;20.20;11.02;;;;;;;26.33;39.18;99057.13;5036672;28;20055;-76
2023/06/16 04:42:25;;;;;;;20.23;11.48;;;;;;;26.50;38.54;99067.47;5019927;28;20048;-77
2023/06/16 04:44:52;;;;;;;15.38;10.68;;;;;;;26.69;38.92;99067.25;5036990;28;20059;-78
2023/06/16 04:47:19;;;;;;;22.67;12.07;;;;;;;26.89;37.81;99067.03;5021315;28;20530;-76
2023/06/16 04:49:45;;;;;;;19.42;10.35;;;;;;;27.11;36.71;99071.00;5036775;28;20410;-77
2023/06/16 04:52:11;;;;;;;22.23;10.90;;;;;;;27.35;35.94;99068.38;5037417;28;20506;-79
2023/06/16 04:54:36;;;;;;;15.75;9.93;;;;;;;27.57;36.27;99066.81;4986958;28;20052;-78
2023/06/16 04:57:05;;;;;;;17.80;10.98;;;;;;;27.75;36.42;99068.66;5036663;28;20048;-79
2023/06/16 04:59:31;;;;;;;20.75;9.95;;;;;;;27.98;36.63;99063.25;5037780;28;20043;-80
2023/06/16 05:01:57;;;;;;;21.42;9.65;;;;;;;28.24;36.48;99066.59;5021414;28;20056;-79
2023/06/16 05:04:23;;;;;;;17.42;10.35;;;;;;;28.53;35.75;99062.94;5020677;28;20048;-80
2023/06/16 05:06:48;;;;;;;28.30;12.13;;;;;;;28.78;34.09;99054.47;5042990;28;20056;-77
2023/06/16 05:09:13;;;;;;;21.52;11.30;;;;;;;29.13;35.15;99065.31;5075517;28;20044;-78
2023/06/16 05:11:42;;;;;;;17.60;10.13;;;;;;;29.44;34.60;99070.38;5071073;28;20036;-78
2023/06/16 05:14:08;;;;;;;20.27;10.45;;;;;;;29.69;33.70;99064.50;5069885;28;20051;-78
2023/06/16 05:16:34;;;;;;;20.75;10.10;;;;;;;29.88;33.01;99059.63;5075925;28;20043;-79
2023/06/16 05:18:59;;;;;;;17.75;10.55;;;;;;;29.96;32.98;99064.75;5058525;28;20043;-78
2023/06/16 05:21:26;;;;;;;17.92;9.68;;;;;;;30.03;32.46;99064.56;5024584;28;20067;-78
2023/06/16 05:23:54;;;;;;;12.07;9.18;;;;;;;30.27;32.59;99063.31;5057960;28;20048;-78
2023/06/16 05:26:21;;;;;;;17.63;9.50;;;;;;;30.56;32.64;99070.41;5024455;28;20055;-81
2023/06/16 05:28:47;;;;;;;17.67;9.93;;;;;;;30.82;32.44;99065.25;5040701;28;20048;-78
2023/06/16 05:31:13;;;;;;;16.52;10.73;;;;;;;31.05;32.24;99068.59;5058400;28;20380;-81
2023/06/16 05:33:39;;;;;;;19.38;10.52;;;;;;;31.28;31.42;99067.50;5041250;28;20110;-79
2023/06/16 05:36:05;;;;;;;15.88;8.57;;;;;;;31.45;30.74;99070.19;5059587;28;20044;-80
2023/06/16 05:38:31;;;;;;;16.50;9.60;;;;;;;31.36;30.72;99074.50;5003900;28;20510;-80
2023/06/16 05:40:57;;;;;;;13.75;9.50;;;;;;;31.29;31.28;99066.41;5051999;28;20044;-78
2023/06/16 05:43:22;;;;;;;13.68;9.40;;;;;;;30.89;31.43;99069.50;5039832;28;20040;-78
2023/06/16 05:45:48;;;;;;;13.98;9.55;;;;;;;30.38;32.24;99064.31;5039577;28;20056;-78
2023/06/16 05:48:14;;;;;;;12.95;8.57;;;;;;;29.89;32.42;99067.63;5039822;28;20048;-77
2023/06/16 05:50:40;;;;;;;17.27;8.63;;;;;;;29.66;32.85;99065.03;5056946;28;20048;-80
2023/06/16 05:53:05;;;;;;;15.27;8.57;;;;;;;29.63;32.93;99068.25;5074320;28;20372;-78
2023/06/16 05:55:32;;;;;;;15.10;7.75;;;;;;;29.60;32.83;99069.56;5023505;28;20055;-80
2023/06/16 05:57:58;;;;;;;18.25;9.38;;;;;;;30.24;32.95;99067.44;5040662;28;20044;-80
2023/06/16 06:00:23;;;;;;;16.30;8.35;;;;;;;31.33;30.31;99069.50;5058503;28;20048;-79
2023/06/16 06:02:55;;;;;;;15.65;8.68;;;;;;;32.05;29.54;99067.22;5019921;28;20044;-77
2023/06/16 06:05:27;;;;;;;11.90;7.97;;;;;;;32.29;29.49;99064.94;5022869;28;20056;-79
2023/06/16 06:07:52;;;;;;;16.65;7.90;;;;;;;32.70;29.25;99065.22;5054075;28;20051;-78
2023/06/16 06:10:18;;;;;;;10.07;7.03;;;;;;;33.58;27.57;99065.34;5037261;28;20052;-79
2023/06/16 06:12:45;;;;;;;21.65;10.25;;;;;;;33.81;27.24;99062.91;5053540;28;20048;-78
2023/06/16 06:15:11;;;;;;;15.15;7.82;;;;;;;34.01;26.60;99061.25;5038283;28;20058;-78
2023/06/16 06:17:37;;;;;;;14.05;7.65;;;;;;;34.02;26.57;99063.75;5055352;28;20040;-78
2023/06/16 06:20:03;;;;;;;12.32;6.78;;;;;;;34.14;26.37;99067.06;5039315;28;20055;-78
2023/06/16 06:22:32;;;;;;;11.68;8.00;;;;;;;34.04;26.07;99063.50;5056539;28;20048;-78
2023/06/16 06:24:59;;;;;;;9.82;7.40;;;;;;;34.19;25.86;99067.09;5056595;28;20059;-78
2023/06/16 06:27:25;;;;;;;10.13;7.13;;;;;;;34.14;25.29;99071.78;5056791;28;20040;-77
2023/06/16 06:29:51;;;;;;;12.82;7.75;;;;;;;34.11;25.04;99062.09;5055350;28;20043;-78
2023/06/16 06:32:16;;;;;;;12.18;7.47;;;;;;;34.10;24.95;99065.97;5056558;28;20118;-78
2023/06/16 06:34:41;;;;;;;12.82;7.65;;;;;;;34.29;24.86;99079.28;5056127;28;20046;-80
2023/06/16 06:37:07;;;;;;;16.98;8.55;;;;;;;34.87;24.87;99064.81;5073662;28;20048;-79
2023/06/16 06:39:34;;;;;;;11.02;7.85;;;;;;;35.76;24.01;99064.97;5057458;28;20378;-77
2023/06/16 06:42:00;;;;;;;15.93;8.43;;;;;;;36.35;23.63;99085.00;5056971;28;20039;-81
2023/06/16 06:44:31;;;;;;;15.07;8.70;;;;;;;36.45;23.38;99059.13;5040196;28;20047;-79
2023/06/16 06:46:58;;;;;;;12.55;8.30;;;;;;;36.47;23.55;99053.25;5039804;28;20042;-77
2023/06/16 06:49:23;;;;;;;11.90;7.30;;;;;;;36.74;23.44;99056.34;5056249;28;20052;-80
2023/06/16 06:51:50;;;;;;;13.30;8.55;;;;;;;37.05;22.85;99065.97;5052040;28;20035;-81
2023/06/16 06:54:15;;;;;;;12.40;8.15;;;;;;;37.29;22.20;99042.91;5022551;28;20056;-80
2023/06/16 06:56:40;;;;;;;10.75;7.53;;;;;;;37.53;22.64;99056.75;5056895;28;20039;-79
2023/06/16 06:59:06;;;;;;;9.80;7.80;;;;;;;38.18;22.37;99056.88;5057417;28;20035;-79
2023/06/16 07:01:31;;;;;;;11.70;7.40;;;;;;;38.77;20.55;99051.34;5022520;28;20052;-78
2023/06/16 07:03:57;;;;;;;27.98;25.00;;;;;;;39.20;19.67;99059.41;5018170;28;20813;-80
2023/06/16 07:06:22;;;;;;;16.00;8.93;;;;;;;39.60;19.39;99043.78;5056434;28;20047;-79
2023/06/16 07:08:47;;;;;;;9.52;8.52;;;;;;;40.25;19.22;99055.28;5055150;28;20036;-81
2023/06/16 07:11:12;;;;;;;13.63;7.65;;;;;;;40.82;18.81;99060.25;5052911;28;20043;-79
2023/06/16 07:13:38;;;;;;;8.38;7.57;;;;;;;41.30;18.07;99055.50;5058533;28;20051;-79
2023/06/16 07:16:04;;;;;;;8.70;7.72;;;;;;;41.77;17.73;99047.31;5061614;28;20051;-78
2023/06/16 07:18:29;;;;;;;11.30;8.70;;;;;;;42.20;17.46;99050.13;5069545;28;20123;-82
2023/06/16 07:20:54;;;;;;;12.15;10.88;;;;;;;42.77;17.09;99049.84;5034460;28;20058;-83
2023/06/16 07:27:19;;;;;;;9.85;7.95;;;;;;;43.34;16.02;99044.59;5037816;28;20495;-76
2023/06/16 07:29:44;;;;;;;10.90;9.80;;;;;;;43.74;15.88;99044.97;5034653;28;20048;-77
2023/06/16 07:32:10;;;;;;;12.10;9.55;;;;;;;43.93;15.41;99038.84;5035977;28;20052;-78
2023/06/16 07:34:37;;;;;;;9.93;8.93;;;;;;;44.23;14.77;99042.41;5034390;28;20052;-78
2023/06/16 07:37:02;;;;;;;10.32;8.73;;;;;;;44.45;14.48;99044.00;5035301;28;20044;-77
2023/06/16 07:39:27;;;;;;;11.27;8.23;;;;;;;44.16;14.15;99031.69;5033898;28;20406;-77
2023/06/16 07:41:53;;;;;;;12.40;8.25;;;;;;;44.60;14.17;99037.69;5050349;28;20052;-79
2023/06/16 07:44:18;;;;;;;10.02;9.00;;;;;;;45.56;13.54;99038.06;5054468;28;20055;-78
2023/06/16 07:46:46;;;;;;;10.60;9.70;;;;;;;45.34;13.58;99038.56;5034474;28;20052;-78
2023/06/16 07:49:13;;;;;;;10.40;9.40;;;;;;;44.76;14.15;99035.03;5057446;28;20043;-76
2023/06/16 07:51:39;;;;;;;9.43;8.52;;;;;;;44.51;14.56;99032.16;5056919;28;20050;-76
2023/06/16 07:54:04;;;;;;;10.77;8.77;;;;;;;43.78;14.97;99031.06;5058393;28;20043;-78
2023/06/16 07:56:29;;;;;;;21.40;17.92;;;;;;;44.05;15.05;99029.66;5058758;28;20055;-79
2023/06/16 07:58:54;;;;;;;14.30;10.52;;;;;;;43.87;15.15;99025.38;5059983;28;20040;-77
2023/06/16 08:01:20;;;;;;;9.93;8.75;;;;;;;43.54;15.40;99020.50;5059485;28;20047;-78
2023/06/16 08:03:46;;;;;;;9.23;8.30;;;;;;;43.14;15.56;99014.47;5038220;28;20063;-77
2023/06/16 08:06:12;;;;;;;9.48;8.52;;;;;;;42.93;15.65;99020.03;5038862;28;20075;-77
2023/06/16 08:08:37;;;;;;;10.82;8.13;;;;;;;42.50;15.49;99017.41;5038151;28;20052;-79
2023/06/16 08:11:02;;;;;;;8.90;8.07;;;;;;;41.11;15.95;99020.50;5056029;28;20044;-78
2023/06/16 08:13:27;;;;;;;9.48;8.07;;;;;;;39.36;17.42;99018.06;5022291;28;20380;-79
2023/06/16 08:15:53;;;;;;;8.50;7.63;;;;;;;37.95;18.64;99008.53;5004399;28;20048;-76
2023/06/16 08:18:19;;;;;;;9.82;7.57;;;;;;;36.85;19.66;99010.66;5029013;28;20043;-75
2023/06/16 08:20:47;;;;;;;7.57;6.82;;;;;;;35.97;19.97;99020.13;5053055;28;20036;-74
2023/06/16 08:23:14;;;;;;;7.53;6.78;;;;;;;35.24;21.40;99010.88;5039521;28;20052;-75
2023/06/16 08:25:39;;;;;;;8.45;7.57;;;;;;;34.63;21.58;99010.28;5058283;28;20058;-75
2023/06/16 08:28:07;;;;;;;8.38;7.53;;;;;;;34.22;21.47;99013.94;5039812;28;20048;-76
2023/06/16 08:30:36;;;;;;;11.50;7.65;;;;;;;33.91;22.48;99017.00;5039303;28;20055;-76
2023/06/16 08:33:02;;;;;;;9.75;7.20;;;;;;;33.59;22.29;99011.72;5039565;28;20052;-78
2023/06/16 08:35:28;;;;;;;25.75;7.95;;;;;;;33.60;22.72;99016.97;5058461;28;20414;-75
2023/06/16 08:37:53;;;;;;;8.65;7.20;;;;;;;33.57;22.79;99020.28;5039211;28;20514;-76
2023/06/16 08:40:18;;;;;;;8.40;6.72;;;;;;;33.49;23.92;99016.13;5057415;28;20047;-76
2023/06/16 08:42:46;;;;;;;8.65;7.32;;;;;;;33.51;24.41;99021.38;5056376;28;20055;-75
2023/06/16 08:45:13;;;;;;;11.38;7.07;;;;;;;34.23;23.14;99010.06;5040310;28;20059;-77
2023/06/16 08:47:38;;;;;;;12.68;7.18;;;;;;;34.55;22.39;99012.50;5039327;28;20048;-77
2023/06/16 08:50:07;;;;;;;15.32;9.02;;;;;;;34.53;22.72;99025.00;5057133;28;20040;-76
2023/06/16 08:52:37;;;;;;;10.88;8.23;;;;;;;34.44;22.24;99018.34;5057109;28;20046;-77
2023/06/16 08:55:05;;;;;;;14.15;11.80;;;;;;;34.71;22.52;99016.06;5039749;28;20048;-78
2023/06/16 08:57:33;;;;;;;14.93;8.77;;;;;;;35.98;21.47;99018.19;5022675;28;20052;-77
2023/06/16 09:00:00;;;;;;;35.08;26.80;;;;;;;36.49;20.94;99009.38;5040812;28;20047;-80
2023/06/16 09:02:29;;;;;;;12.80;8.90;;;;;;;36.35;21.11;99012.00;5040530;28;20044;-77
2023/06/16 09:04:56;;;;;;;9.82;8.82;;;;;;;37.72;20.39;99010.28;5040616;28;20056;-79
2023/06/16 09:07:27;;;;;;;9.18;7.95;;;;;;;40.16;17.52;99003.31;5059017;28;20382;-77
2023/06/16 09:09:52;;;;;;;10.50;8.05;;;;;;;42.61;16.69;99009.47;5058485;28;20032;-80
2023/06/16 09:12:18;;;;;;;10.50;9.43;;;;;;;44.49;15.46;99002.75;5041100;28;20050;-81
2023/06/16 09:14:49;;;;;;;11.85;10.23;;;;;;;45.54;14.84;99010.25;5007547;28;20426;-80
2023/06/16 09:17:14;;;;;;;13.05;11.68;;;;;;;47.03;14.36;99007.13;5058834;28;20482;-81
2023/06/16 09:19:47;;;;;;;15.15;11.60;;;;;;;48.52;13.20;99010.31;5024561;28;20040;-81
2023/06/16 09:22:19;;;;;;;14.52;13.10;;;;;;;49.65;12.39;99008.47;5029734;28;20051;-81
2023/06/16 09:24:55;;;;;;;15.07;13.88;;;;;;;50.74;11.09;99011.72;5059349;28;20047;-81
2023/06/16 09:27:23;;;;;;;19.35;18.08;;;;;;;51.24;11.33;99008.50;5058859;28;20048;-78
2023/06/16 09:29:57;;;;;;;20.02;18.55;;;;;;;52.21;10.49;99002.81;5058934;28;20051;-80
2023/06/16 09:32:22;;;;;;;24.92;23.35;;;;;;;52.53;11.00;99009.41;5040512;28;20052;-78
2023/06/16 09:34:48;;;;;;;27.67;25.98;;;;;;;52.86;10.32;99001.69;5057529;28;20032;-78
2023/06/16 09:37:19;;;;;;;29.25;27.38;;;;;;;52.88;9.83;99008.63;5058655;28;20039;-79
2023/06/16 09:39:44;;;;;;;32.92;30.67;;;;;;;53.02;10.46;99004.97;5038123;28;20040;-77
2023/06/16 09:42:13;;;;;;;30.42;28.50;;;;;;;52.56;10.23;99002.13;5039792;28;20047;-78
2023/06/16 09:44:42;;;;;;;25.23;23.38;;;;;;;50.40;11.09;98996.81;5039993;28;20058;-77
2023/06/16 09:47:12;;;;;;;17.95;16.83;;;;;;;47.83;11.65;98990.41;5058694;28;20055;-78
2023/06/16 09:49:38;;;;;;;14.30;13.20;;;;;;;45.29;13.61;98972.06;5040101;28;20426;-78
2023/06/16 09:52:03;;;;;;;13.63;12.25;;;;;;;44.36;14.56;99001.13;5058720;28;20047;-79
2023/06/16 09:54:29;;;;;;;13.95;12.82;;;;;;;45.42;14.17;98972.84;5040504;28;20050;-77
2023/06/16 09:56:59;;;;;;;15.80;14.50;;;;;;;47.34;13.29;98970.31;5023410;28;20055;-77
2023/06/16 09:59:27;;;;;;;16.20;15.10;;;;;;;49.12;12.54;98968.03;5023358;28;20059;-77
2023/06/16 10:01:54;;;;;;;19.08;17.42;;;;;;;50.52;12.04;98970.16;5057015;28;20051;-77
2023/06/16 10:04:21;;;;;;;24.63;22.33;;;;;;;51.34;11.56;98982.97;5024216;28;20052;-76
2023/06/16 10:06:55;;;;;;;26.40;24.92;;;;;;;52.31;10.44;98976.44;5019954;28;20407;-77
2023/06/16 10:09:27;;;;;;;28.25;26.20;;;;;;;51.62;10.89;98972.97;5019860;28;20070;-77
2023/06/16 10:11:54;;;;;;;22.00;20.58;;;;;;;49.43;11.72;98971.34;5038433;28;20060;-78
2023/06/16 10:14:21;;;;;;;16.30;15.05;;;;;;;46.61;13.03;98959.72;5036651;28;20049;-82
2023/06/16 10:16:49;;;;;;;13.25;12.02;;;;;;;44.10;14.42;98967.66;5034229;28;20036;-79
2023/06/16 10:19:16;;;;;;;12.30;11.10;;;;;;;41.94;15.69;98957.69;5022416;28;20055;-81
2023/06/16 10:21:42;;;;;;;11.10;9.98;;;;;;;40.06;17.00;98996.03;5049383;28;20573;-84
2023/06/16 10:24:08;;;;;;;11.65;9.70;;;;;;;38.63;17.71;98936.28;5032064;28;20415;-81
2023/06/16 10:26:34;;;;;;;9.82;8.25;;;;;;;37.56;18.42;98948.50;5025689;28;20048;-83
2023/06/16 10:28:59;;;;;;;9.10;8.18;;;;;;;36.82;18.65;98943.72;5050120;28;20043;-81
2023/06/16 10:31:27;;;;;;;12.02;7.72;;;;;;;36.58;19.31;98939.00;4999053;28;20044;-80
2023/06/16 10:33:54;;;;;;;11.27;8.80;;;;;;;36.52;19.76;98931.03;5018494;28;20052;-81
2023/06/16 10:36:24;;;;;;;10.82;8.98;;;;;;;36.34;20.16;98935.41;5033081;28;20041;-84
2023/06/16 10:39:06;;;;;;;12.00;7.70;;;;;;;36.13;19.23;98936.72;5033567;28;20051;-77
2023/06/16 10:41:33;;;;;;;14.00;7.75;;;;;;;35.61;19.83;98933.56;5039767;28;20036;-78
2023/06/16 10:44:20;;;;;;;7.63;6.88;;;;;;;35.60;19.48;98934.69;4999579;28;20061;-76
2023/06/16 10:46:45;;;;;;;10.15;8.65;;;;;;;34.98;19.59;98926.25;4999583;28;20041;-78
2023/06/16 10:49:11;;;;;;;10.57;7.22;;;;;;;34.61;19.74;98927.50;5015564;28;20052;-76
2023/06/16 10:51:41;;;;;;;8.00;7.20;;;;;;;33.97;20.32;98927.41;5029573;28;20051;-75
2023/06/16 10:54:08;;;;;;;8.43;7.63;;;;;;;33.36;21.13;98932.94;5033313;28;20056;-74
2023/06/16 10:57:08;;;;;;;10.20;7.85;;;;;;;33.23;22.13;98931.53;5012221;28;20041;-76
2023/06/16 10:59:55;;;;;;;8.20;7.38;;;;;;;32.88;21.50;98928.66;4991468;28;20380;-73
2023/06/16 11:02:26;;;;;;;8.88;7.50;;;;;;;32.20;22.41;98919.50;5020658;28;20045;-70
2023/06/16 11:05:09;;;;;;;8.95;7.55;;;;;;;32.20;22.07;98925.84;5016887;28;20045;-70
2023/06/16 11:08:01;;;;;;;10.85;7.88;;;;;;;32.22;22.21;98918.16;5038717;28;20048;-70
2023/06/16 11:10:26;;;;;;;7.57;6.78;;;;;;;31.88;22.69;98916.81;5006801;28;20064;-71
2023/06/16 11:12:51;;;;;;;10.52;7.25;;;;;;;31.68;22.50;98914.75;5013964;28;20048;-70
2023/06/16 11:15:18;;;;;;;11.82;7.40;;;;;;;31.36;22.60;98915.56;5032814;28;20446;-71
2023/06/16 11:17:49;;;;;;;7.80;7.05;;;;;;;31.14;23.84;98917.56;5034978;28;20040;-74
2023/06/16 11:20:15;;;;;;;8.55;7.35;;;;;;;30.97;23.91;98919.53;5016906;28;20392;-72
2023/06/16 11:22:42;;;;;;;9.93;7.70;;;;;;;30.75;23.65;98910.50;5020335;28;20043;-71
2023/06/16 11:25:08;;;;;;;15.88;13.45;;;;;;;30.51;23.52;98912.66;5020156;28;20044;-71
2023/06/16 11:27:35;;;;;;;8.80;7.90;;;;;;;30.33;24.13;98911.06;5038219;28;20435;-73